createdAt,value
2022-08-09T00:01:26.614Z,4.00
2022-08-09T00:06:18.879Z,4.20
2022-08-09T00:09:31.250Z,4.80
2022-08-09T00:13:02.301Z,4.80
2022-08-09T00:16:17.683Z,4.90
2022-08-09T00:20:08.065Z,4.30
2022-08-09T00:23:54.571Z,4.80
2022-08-09T00:27:43.219Z,4.50
2022-08-09T00:31:58.242Z,4.10
2022-08-09T00:35:15.628Z,4.20
2022-08-09T00:38:57.280Z,4.20
2022-08-09T00:44:13.883Z,4.80
2022-08-09T00:46:44.058Z,4.60
2022-08-09T00:50:19.720Z,4.30
2022-08-09T00:54:08.558Z,4.60
2022-08-09T00:57:59.330Z,4.80
2022-08-09T01:00:59.284Z,4.30
2022-08-09T01:04:35.817Z,4.40
2022-08-09T01:08:30.510Z,4.30
2022-08-09T01:12:23.045Z,3.10
2022-08-09T01:16:14.864Z,3.50
2022-08-09T01:19:39.938Z,3.80
2022-08-09T01:24:02.044Z,4.50
2022-08-09T01:28:01.342Z,4.20
2022-08-09T01:31:23.347Z,3.70
2022-08-09T01:35:29.205Z,4.50
2022-08-09T01:39:17.681Z,4.00
2022-08-09T01:42:58.108Z,4.10
2022-08-09T01:46:47.920Z,4.40
2022-08-09T01:50:18.071Z,4.10
2022-08-09T01:54:18.946Z,4.20
2022-08-09T01:58:10.640Z,4.30
2022-08-09T02:01:59.278Z,3.80
2022-08-09T02:05:37.752Z,4.10
2022-08-09T02:09:14.518Z,4.20
2022-08-09T02:12:56.307Z,5.00
2022-08-09T02:16:06.664Z,4.80
2022-08-09T02:19:38.638Z,4.80
2022-08-09T02:23:17.851Z,5.50
2022-08-09T02:26:58.897Z,5.40
2022-08-09T02:30:47.874Z,5.90
2022-08-09T02:34:41.705Z,5.60
2022-08-09T02:38:28.619Z,5.20
2022-08-09T02:42:24.817Z,5.50
2022-08-09T02:45:56.520Z,5.40
2022-08-09T02:49:45.303Z,4.90
2022-08-09T02:53:56.678Z,5.50
2022-08-09T02:57:25.246Z,5.30
2022-08-09T03:00:58.467Z,5.80
2022-08-09T03:04:43.164Z,6.10
2022-08-09T03:08:32.095Z,5.70
2022-08-09T03:12:20.095Z,5.20
2022-08-09T03:16:10.108Z,5.70
2022-08-09T03:19:57.913Z,5.00
2022-08-09T03:23:38.158Z,5.30
2022-08-09T03:27:17.238Z,5.00
2022-08-09T03:31:21.121Z,5.60
2022-08-09T03:35:24.903Z,5.90
2022-08-09T03:39:15.125Z,6.20
2022-08-09T03:42:48.594Z,6.70
2022-08-09T03:46:37.510Z,6.10
2022-08-09T03:50:11.685Z,5.60
2022-08-09T03:53:51.179Z,6.70
2022-08-09T03:57:32.445Z,5.90
2022-08-09T04:01:33.664Z,6.00
2022-08-09T04:04:52.726Z,5.50
2022-08-09T04:08:40.732Z,6.30
2022-08-09T04:11:58.470Z,5.40
2022-08-09T04:16:18.208Z,5.30
2022-08-09T04:19:56.170Z,5.80
2022-08-09T04:23:29.102Z,5.30
2022-08-09T04:27:21.952Z,5.50
2022-08-09T04:31:13.073Z,4.40
2022-08-09T04:34:47.787Z,5.30
2022-08-09T04:38:45.051Z,5.70
2022-08-09T04:42:22.745Z,5.70
2022-08-09T04:46:36.380Z,6.20
2022-08-09T04:49:55.782Z,6.30
2022-08-09T04:53:45.156Z,6.50
2022-08-09T04:57:14.322Z,6.00
2022-08-09T05:00:56.175Z,5.20
2022-08-09T05:04:31.423Z,5.50
2022-08-09T05:08:14.025Z,5.30
2022-08-09T05:12:04.087Z,6.00
2022-08-09T05:15:39.385Z,5.10
2022-08-09T05:19:26.110Z,5.80
2022-08-09T05:23:54.845Z,6.80
2022-08-09T05:26:59.372Z,6.30
2022-08-09T05:30:36.522Z,6.60
2022-08-09T05:34:31.357Z,7.60
2022-08-09T05:37:59.843Z,7.50
2022-08-09T05:41:48.764Z,7.30
2022-08-09T05:45:53.026Z,7.80
2022-08-09T05:50:30.447Z,8.90
2022-08-09T05:53:57.665Z,8.90
2022-08-09T05:57:56.400Z,9.30
2022-08-09T06:01:25.681Z,9.40
2022-08-09T06:04:44.408Z,9.80
2022-08-09T06:08:19.322Z,9.60
2022-08-09T06:12:14.412Z,9.20
2022-08-09T06:16:04.852Z,10.00
2022-08-09T06:19:54.499Z,10.10
2022-08-09T06:23:55.655Z,8.00
2022-08-09T06:27:51.492Z,8.60
2022-08-09T06:32:08.386Z,8.10
2022-08-09T06:35:35.862Z,8.00
2022-08-09T06:39:57.808Z,7.30
2022-08-09T06:43:34.446Z,7.40
2022-08-09T06:47:24.024Z,7.90
2022-08-09T06:51:10.135Z,8.80
2022-08-09T06:54:59.366Z,8.20
2022-08-09T07:00:49.734Z,8.40
2022-08-09T07:02:51.791Z,8.50
2022-08-09T07:06:40.611Z,8.90
2022-08-09T07:10:32.289Z,9.00
2022-08-09T07:14:05.240Z,9.10
2022-08-09T07:18:02.145Z,9.60
2022-08-09T07:21:32.183Z,8.20
2022-08-09T07:25:23.291Z,8.60
2022-08-09T07:29:01.275Z,8.00
2022-08-09T07:32:58.640Z,8.40
2022-08-09T07:36:42.692Z,7.90
2022-08-09T07:41:00.517Z,7.60
2022-08-09T07:44:52.512Z,7.50
2022-08-09T07:48:43.117Z,6.80
2022-08-09T07:52:35.811Z,7.10
2022-08-09T07:56:03.517Z,7.00
2022-08-09T07:59:45.695Z,7.60
2022-08-09T08:03:13.772Z,8.30
2022-08-09T08:06:56.156Z,7.40
2022-08-09T08:10:38.598Z,7.50
2022-08-09T08:14:37.698Z,8.80
2022-08-09T08:18:27.018Z,6.30
2022-08-09T08:21:50.919Z,5.60
2022-08-09T08:25:24.313Z,6.70
2022-08-09T08:29:39.555Z,5.10
2022-08-09T08:33:40.647Z,4.70
2022-08-09T08:37:59.608Z,9.30
2022-08-09T08:41:52.472Z,4.90
2022-08-09T08:45:37.154Z,8.90
2022-08-09T08:49:38.905Z,4.40
2022-08-09T08:53:37.379Z,5.80
2022-08-09T08:57:26.752Z,5.30
2022-08-09T09:01:25.044Z,4.40
2022-08-09T09:05:59.117Z,4.20
2022-08-09T09:09:41.108Z,3.40
2022-08-09T09:13:34.823Z,4.20
2022-08-09T09:17:48.900Z,2.50
2022-08-09T09:21:43.419Z,2.00
2022-08-09T09:26:03.807Z,2.20
2022-08-09T09:30:10.608Z,1.70
2022-08-09T09:34:14.699Z,2.40
2022-08-09T09:38:03.160Z,2.40
2022-08-09T09:41:50.873Z,2.00
2022-08-09T09:45:56.982Z,2.10
2022-08-09T09:50:15.258Z,2.20
2022-08-09T09:54:14.251Z,2.10
2022-08-09T09:58:24.542Z,2.90
2022-08-09T10:02:20.356Z,2.90
2022-08-09T10:06:10.270Z,2.50
2022-08-09T10:10:03.289Z,2.40
2022-08-09T10:13:53.049Z,2.70
2022-08-09T10:17:39.429Z,2.30
2022-08-09T10:21:49.708Z,1.80
2022-08-09T10:26:04.183Z,2.20
2022-08-09T10:30:49.262Z,1.90
2022-08-09T10:34:11.492Z,2.50
2022-08-09T10:38:02.438Z,2.90
2022-08-09T10:41:52.218Z,2.60
2022-08-09T10:45:49.295Z,2.50
2022-08-09T10:50:00.331Z,2.40
2022-08-09T10:53:54.520Z,2.60
2022-08-09T10:57:51.818Z,2.50
2022-08-09T11:03:11.613Z,2.80
2022-08-09T11:06:00.127Z,3.00
2022-08-09T11:09:50.539Z,2.50
2022-08-09T11:13:54.805Z,2.70
2022-08-09T11:17:41.746Z,2.50
2022-08-09T11:21:41.412Z,3.00
2022-08-09T11:25:47.893Z,3.10
2022-08-09T11:30:05.681Z,2.70
2022-08-09T11:33:30.547Z,2.40
2022-08-09T11:37:19.153Z,2.00
2022-08-09T11:41:09.139Z,2.10
2022-08-09T11:44:57.144Z,3.20
2022-08-09T11:48:52.655Z,2.40
2022-08-09T11:53:00.983Z,2.60
2022-08-09T11:56:55.403Z,2.70
2022-08-09T12:00:33.599Z,2.60
2022-08-09T12:04:32.473Z,2.70
2022-08-09T12:08:30.583Z,3.00
2022-08-09T12:12:29.230Z,3.30
2022-08-09T12:16:30.652Z,3.20
2022-08-09T12:20:10.688Z,3.00
2022-08-09T12:24:09.530Z,2.60
2022-08-09T12:29:13.168Z,2.70
2022-08-09T12:32:02.118Z,2.80
2022-08-09T12:35:40.034Z,2.90
2022-08-09T12:39:29.930Z,3.30
2022-08-09T12:44:06.554Z,3.70
2022-08-09T12:47:05.401Z,2.90
2022-08-09T12:50:37.570Z,2.90
2022-08-09T12:54:25.156Z,2.70
2022-08-09T12:58:24.446Z,2.70
2022-08-09T13:02:23.681Z,3.20
2022-08-09T13:06:25.291Z,3.30
2022-08-09T13:10:26.935Z,3.00
2022-08-09T13:14:42.486Z,3.00
2022-08-09T13:18:35.867Z,2.90
2022-08-09T13:22:38.180Z,2.80
2022-08-09T13:26:40.915Z,3.00
2022-08-09T13:30:51.225Z,3.00
2022-08-09T13:34:42.030Z,3.00
2022-08-09T13:38:46.073Z,3.40
2022-08-09T13:42:44.073Z,3.60
2022-08-09T13:47:16.779Z,2.80
2022-08-09T13:50:31.293Z,3.00
2022-08-09T13:54:15.237Z,3.00
2022-08-09T13:58:02.916Z,2.70
2022-08-09T14:02:02.256Z,3.10
2022-08-09T14:06:00.247Z,3.40
2022-08-09T14:09:53.137Z,3.60
2022-08-09T14:14:15.718Z,3.40
2022-08-09T14:18:18.799Z,3.40
2022-08-09T14:21:47.641Z,3.20
2022-08-09T14:25:43.034Z,3.30
2022-08-09T14:30:34.036Z,3.40
2022-08-09T14:33:43.662Z,3.10
2022-08-09T14:38:02.590Z,3.30
2022-08-09T14:41:40.415Z,3.00
2022-08-09T14:44:59.561Z,3.80
2022-08-09T14:48:29.727Z,3.20
2022-08-09T14:52:09.947Z,2.80
2022-08-09T14:55:59.635Z,2.90
2022-08-09T14:59:48.689Z,5.80
2022-08-09T15:03:38.929Z,6.80
2022-08-09T15:07:12.084Z,3.20
2022-08-09T15:11:07.081Z,3.40
2022-08-09T15:14:57.395Z,3.70
2022-08-09T15:18:49.912Z,23.90
2022-08-09T15:22:26.075Z,14.40
2022-08-09T15:26:18.843Z,3.20
2022-08-09T15:30:58.149Z,4.20
2022-08-09T15:34:18.007Z,4.10
2022-08-09T15:37:56.882Z,4.10
2022-08-09T15:41:55.041Z,4.20
2022-08-09T15:46:07.703Z,3.70
2022-08-09T15:50:03.449Z,3.80
2022-08-09T15:54:05.973Z,3.00
2022-08-09T15:57:57.471Z,3.50
2022-08-09T16:01:53.327Z,3.60
2022-08-09T16:05:53.395Z,3.20
2022-08-09T16:09:51.390Z,4.10
2022-08-09T16:14:03.100Z,2.80
2022-08-09T16:17:56.581Z,3.80
2022-08-09T16:21:51.843Z,6.50
2022-08-09T16:25:39.780Z,2.90
2022-08-09T16:29:12.691Z,1.80
2022-08-09T16:32:53.189Z,2.50
2022-08-09T16:36:27.769Z,2.90
2022-08-09T16:39:10.325Z,3.10
2022-08-09T16:42:45.006Z,3.20
2022-08-09T16:46:34.924Z,2.90
2022-08-09T16:50:33.479Z,2.80
2022-08-09T16:54:26.046Z,1.90
2022-08-09T16:58:10.103Z,1.40
2022-08-09T17:01:51.112Z,7.70
2022-08-09T17:06:06.706Z,2.20
2022-08-09T17:09:53.391Z,2.10
2022-08-09T17:14:01.830Z,2.20
2022-08-09T17:17:27.782Z,2.60
2022-08-09T17:20:52.426Z,2.30
2022-08-09T17:24:47.847Z,2.70
2022-08-09T17:28:16.475Z,1.80
2022-08-09T17:32:07.618Z,2.30
2022-08-09T17:36:05.715Z,7.50
2022-08-09T17:39:28.049Z,5.80
2022-08-09T17:43:34.889Z,3.40
2022-08-09T17:47:26.469Z,3.50
2022-08-09T17:51:20.116Z,3.50
2022-08-09T17:54:59.887Z,3.30
2022-08-09T17:58:51.081Z,3.30
2022-08-09T18:02:41.302Z,3.20
2022-08-09T18:06:14.809Z,4.50
2022-08-09T18:10:18.120Z,2.80
2022-08-09T18:14:12.543Z,3.20
2022-08-09T18:18:08.128Z,3.40
2022-08-09T18:21:48.445Z,4.00
2022-08-09T18:25:15.461Z,2.60
2022-08-09T18:30:42.198Z,2.80
2022-08-09T18:32:47.086Z,3.10
2022-08-09T18:36:08.013Z,2.90
2022-08-09T18:39:45.375Z,3.30
2022-08-09T18:43:38.744Z,2.70
2022-08-09T18:47:27.599Z,3.60
2022-08-09T18:51:03.069Z,4.00
2022-08-09T18:54:33.678Z,3.50
2022-08-09T18:58:32.263Z,3.30
2022-08-09T19:02:15.483Z,3.80
2022-08-09T19:06:04.098Z,2.80
2022-08-09T19:10:16.708Z,6.30
2022-08-09T19:14:03.288Z,3.30
2022-08-09T19:17:58.657Z,5.10
2022-08-09T19:22:04.876Z,3.50
2022-08-09T19:26:02.202Z,5.30
2022-08-09T19:30:21.309Z,6.50
2022-08-09T19:34:02.479Z,5.20
2022-08-09T19:37:17.262Z,4.30
2022-08-09T19:41:06.536Z,3.90
2022-08-09T19:44:51.294Z,4.80
2022-08-09T19:49:02.519Z,3.60
2022-08-09T19:52:20.512Z,3.60
2022-08-09T19:56:06.689Z,3.70
2022-08-09T19:59:59.175Z,4.00
2022-08-09T20:04:16.614Z,3.90
2022-08-09T20:08:06.089Z,3.80
2022-08-09T20:11:51.864Z,3.60
2022-08-09T20:16:33.521Z,3.70
2022-08-09T20:19:54.698Z,3.70
2022-08-09T20:23:21.154Z,4.30
2022-08-09T20:27:05.430Z,3.90
2022-08-09T20:30:58.281Z,3.90
2022-08-09T20:34:31.707Z,3.50
2022-08-09T20:38:22.383Z,4.00
2022-08-09T20:41:58.265Z,3.80
2022-08-09T20:46:01.865Z,3.60
2022-08-09T20:49:29.953Z,6.30
2022-08-09T20:53:35.236Z,4.10
2022-08-09T20:57:32.388Z,3.40
2022-08-09T21:01:13.623Z,3.80
2022-08-09T21:05:51.901Z,4.40
2022-08-09T21:08:54.874Z,3.90
2022-08-09T21:15:56.141Z,3.90
2022-08-09T21:20:17.158Z,4.30
2022-08-09T21:23:47.500Z,3.30
2022-08-09T21:27:52.639Z,4.50
2022-08-09T21:35:50.831Z,4.70
2022-08-09T21:38:57.958Z,5.30
2022-08-09T21:42:47.802Z,4.40
2022-08-09T21:46:33.909Z,5.00
2022-08-09T21:50:25.328Z,5.10
2022-08-09T21:54:16.639Z,4.90
2022-08-09T21:58:01.880Z,5.20
2022-08-09T22:01:58.588Z,4.50
2022-08-09T22:05:51.363Z,5.20
2022-08-09T22:09:30.228Z,4.10
2022-08-09T22:13:15.070Z,4.40
2022-08-09T22:16:40.397Z,4.00
2022-08-09T22:20:01.915Z,4.30
2022-08-09T22:23:26.564Z,4.50
2022-08-09T22:26:47.874Z,4.70
2022-08-09T22:30:31.298Z,5.10
2022-08-09T22:34:15.645Z,5.20
2022-08-09T22:38:06.708Z,4.60
2022-08-09T22:41:34.384Z,4.50
2022-08-09T22:48:11.600Z,5.10
2022-08-09T22:48:43.403Z,4.80
2022-08-09T22:52:30.898Z,5.00
2022-08-09T22:56:30.807Z,5.40
2022-08-09T23:00:00.843Z,4.70
2022-08-09T23:04:03.993Z,5.40
2022-08-09T23:07:16.376Z,6.30
2022-08-09T23:10:44.133Z,5.20
2022-08-09T23:14:41.775Z,5.90
2022-08-09T23:18:31.277Z,6.20
2022-08-09T23:21:39.629Z,5.60
2022-08-09T23:24:42.654Z,5.30
2022-08-09T23:28:15.611Z,6.40
2022-08-09T23:31:59.372Z,5.20
2022-08-09T23:35:25.145Z,5.00
2022-08-09T23:38:26.592Z,5.30
2022-08-09T23:41:28.295Z,6.00
2022-08-09T23:45:10.213Z,5.90
2022-08-09T23:49:11.404Z,5.90
2022-08-09T23:52:40.580Z,5.10
2022-08-09T23:55:49.704Z,5.70
2022-08-09T23:59:02.201Z,5.80
